MHLM/SAP METAR and TAF weather

Enter ICAO airport designator
Station Type Date Time Source
MHLM METAR 2021/03/02 00:00 UTC NOAA

MHLM 020000Z 01010KT 9999 FEW030 27/20 Q1010 A2983 NOSIG


Station Type Date Time Source
MHLM Decoded METAR 2021/03/02 00:00 UTC NOAA

La Mesa San Pedro Sula , Honduras (MHLM) 15-27N 087-56W 31M
Mar 01, 2021 - 07:00 PM EST / 2021.03.02 0000 UTC
Wind: from the N (010 degrees) at 12 MPH (10 KT):0
Visibility: greater than 7 mile(s):0
Sky conditions: mostly clear
Temperature: 80 F (27 C)
Dew Point: 68 F (20 C)
Relative Humidity: 65%
Pressure (altimeter): 29.83 in. Hg (1010 hPa)
ob: MHLM 020000Z 01010KT 9999 FEW030 27/20 Q1010 A2983 NOSIG
cycle: 0

Station Type Date Time Source
MHLM TAF 2021/03/01 18:08 UTC NOAA

TAF MHLM 011600Z 0118/0218 03012KT 9999 FEW028 TX32/0120Z TN19/0212Z
BECMG 0200/0202 09004KT
BECMG 0206/0208 22004KT

Example: see airport list